ESOE

Örebro Airport

Örebro, Sweden
METAR ESOE 231350Z 27008KT 230V300 9999 FEW044 SCT053 15/04 Q1000
Observed Flight Rules
Sep-23 @ 13:50 UTC (25 minutes ago) Visual Flight Rules
Wind Visibility Clouds
270° at 8 knots 10,000+ meters
Temperatures Readings
Current 15°C / 59°F
Dewpoint 4°C / 39°F
Humidity 48%
Altimeter 29.53" Hg
Pressure 1000 hPa
Elevation 57
METAR ESOE 231350Z 27008KT 230V300 9999 FEW044 SCT053 15/04 Q1000
Observed Flight Rules
Sep-23 @ 13:50 UTC
(25 minutes ago)
VFR
Wind Visibility
270° at 8 knots 10,000+ meters
Clouds
Temperature Dewpoint
15°C / 59°F 4°C / 39°F
Humidity Altimeter Pressure
48% 29.53" Hg 1000 hPa